Etusivu
METAR-TAF:

METAR-TAF

Lentoasemat :

Cherokee County Airport

Jacksonville, Texas, Yhdysvallat

Leveyspiiri: 31-52-09N, Pituuspiiri: 095-13-02W, korkeus merenpinnasta: 206 m

Tämänhetkinen sää

Tämä raportti tehtiin 23 minuuttia sitten, kello 18.55 UTC
tyyntä
Lämpötila 17°C
Kosteus 68%
Ilmanpaine 1021 hPa
Näkyvyys: 16.1 km
Hajanaisia pilviä 3100 ft:n korkeudessa
Pilvistä 5000 ft:n korkeudessa

METAR: KJSO 251855Z AUTO 00000KT 10SM SCT031 OVC050 17/11 A3016 RMK AO2 T01750116

Aika: 13:18 (19:18 UTC)


TAF: puuttuu

Säähavainnot ja -ennusteet yli 4000 lentoasemalta (METAR- ja TAF-raportit).

Käytössä olevat sääasemat on merkitty karttaan keltaisilla ja punaisilla pisteillä.

Aseta hiiri pisteen päälle nähdäksesi sääaseman nimen.

Klikkaa sitten nähdäksesi säähavainnot ja -ennusteet.

Kartan vaihtaminen: klikkaa mustalla rastilla varustettuja vihreitä pisteitä, niin voit zoomata sisään; viivalla varustettua vihreää pistettä, niin voit zoomata ulos tai vihreitä nuolia, niin pääset viereisille kartoille.


METAR-TAF: